createdAt,value
2016-04-21T00:00:20.786Z,0
2016-04-21T00:01:06.836Z,0
2016-04-21T00:02:06.636Z,0
2016-04-21T00:03:06.592Z,0
2016-04-21T00:04:06.391Z,0
2016-04-21T00:05:06.597Z,0
2016-04-21T00:06:06.411Z,0
2016-04-21T00:07:05.852Z,0
2016-04-21T00:08:06.371Z,0
2016-04-21T00:09:06.280Z,0
2016-04-21T00:10:06.361Z,0
2016-04-21T00:11:06.457Z,0
2016-04-21T00:12:06.382Z,0
2016-04-21T00:13:06.619Z,0
2016-04-21T00:14:06.574Z,0
2016-04-21T00:15:06.358Z,0
2016-04-21T00:16:06.407Z,0
2016-04-21T00:17:06.379Z,0
2016-04-21T00:18:06.351Z,0
2016-04-21T00:19:06.354Z,0
2016-04-21T00:20:06.294Z,0
2016-04-21T00:21:06.374Z,0
2016-04-21T00:22:06.377Z,0
2016-04-21T00:23:06.379Z,0
2016-04-21T00:24:06.601Z,0
2016-04-21T00:25:06.556Z,0
2016-04-21T00:26:06.356Z,0
2016-04-21T00:27:05.875Z,0
2016-04-21T00:28:06.425Z,0
2016-04-21T00:29:06.568Z,0
2016-04-21T00:30:06.945Z,0
2016-04-21T00:31:06.526Z,0
2016-04-21T00:32:06.356Z,0
2016-04-21T00:33:06.328Z,0
2016-04-21T00:34:06.800Z,0
2016-04-21T00:35:06.333Z,0
2016-04-21T00:36:06.572Z,0
2016-04-21T00:37:20.417Z,0
2016-04-21T00:38:06.201Z,0
2016-04-21T00:39:06.330Z,0
2016-04-21T00:40:06.535Z,0
2016-04-21T00:41:06.318Z,0
2016-04-21T00:42:06.712Z,0
2016-04-21T00:43:06.324Z,0
2016-04-21T00:44:05.827Z,0
2016-04-21T00:45:06.502Z,0
2016-04-21T00:46:20.598Z,0
2016-04-21T00:47:06.366Z,0
2016-04-21T00:48:06.321Z,0
2016-04-21T00:49:06.309Z,0
2016-04-21T00:50:06.312Z,0
2016-04-21T00:51:06.282Z,0
2016-04-21T00:52:06.271Z,0
2016-04-21T00:53:06.273Z,0
2016-04-21T00:54:06.276Z,0
2016-04-21T00:55:06.310Z,0
2016-04-21T00:56:20.390Z,0
2016-04-21T00:57:06.518Z,0
2016-04-21T00:58:06.270Z,0
2016-04-21T00:59:06.304Z,0
2016-04-21T01:00:06.886Z,0
2016-04-21T01:01:06.514Z,0
2016-04-21T01:02:06.516Z,0
2016-04-21T01:03:06.253Z,0
2016-04-21T01:04:06.333Z,0
2016-04-21T01:05:06.585Z,0
2016-04-21T01:06:06.384Z,0
2016-04-21T01:07:06.415Z,0
2016-04-21T01:08:20.557Z,0
2016-04-21T01:10:06.474Z,0
2016-04-21T01:11:06.524Z,0
2016-04-21T01:12:06.528Z,0
2016-04-21T01:13:06.265Z,0
2016-04-21T01:14:06.062Z,0
2016-04-21T01:15:07.133Z,0
2016-04-21T01:16:20.641Z,0
2016-04-21T01:17:06.572Z,0
2016-04-21T01:18:06.643Z,0
2016-04-21T01:19:06.541Z,0
2016-04-21T01:20:06.546Z,0
2016-04-21T01:21:06.566Z,0
2016-04-21T01:23:06.580Z,0
2016-04-21T01:24:06.585Z,0
2016-04-21T01:25:06.964Z,0
2016-04-21T01:26:06.560Z,0
2016-04-21T01:27:06.627Z,0
2016-04-21T01:28:06.552Z,0
2016-04-21T01:29:06.789Z,0
2016-04-21T01:30:20.667Z,0
2016-04-21T01:31:06.748Z,0
2016-04-21T01:32:06.767Z,0
2016-04-21T01:33:06.551Z,0
2016-04-21T01:34:06.054Z,0
2016-04-21T01:35:05.807Z,0
2016-04-21T01:36:06.560Z,0
2016-04-21T01:37:06.531Z,0
2016-04-21T01:38:06.582Z,0
2016-04-21T01:39:06.068Z,0
2016-04-21T01:40:20.602Z,0
2016-04-21T01:41:06.542Z,0
2016-04-21T01:42:06.514Z,0
2016-04-21T01:43:06.531Z,0
2016-04-21T01:44:06.784Z,0
2016-04-21T01:45:06.725Z,0
2016-04-21T01:46:06.712Z,0
2016-04-21T01:47:06.715Z,0
2016-04-21T01:48:06.483Z,0
2016-04-21T01:49:06.517Z,0
2016-04-21T01:50:06.535Z,0
2016-04-21T01:51:06.491Z,0
2016-04-21T01:52:06.744Z,0
2016-04-21T01:53:06.747Z,0
2016-04-21T01:54:06.484Z,0
2016-04-21T01:55:06.517Z,0
2016-04-21T01:56:06.692Z,0
2016-04-21T01:57:06.679Z,0
2016-04-21T01:58:06.947Z,0
2016-04-21T01:59:06.746Z,0
2016-04-21T02:00:06.452Z,0
2016-04-21T02:01:20.549Z,0
2016-04-21T02:02:06.458Z,0
2016-04-21T02:03:06.696Z,0
2016-04-21T02:04:06.479Z,0
2016-04-21T02:05:06.498Z,0
2016-04-21T02:06:06.515Z,0
2016-04-21T02:07:06.504Z,0
2016-04-21T02:08:06.537Z,0
2016-04-21T02:09:06.743Z,0
2016-04-21T02:10:06.729Z,0
2016-04-21T02:11:06.701Z,0
2016-04-21T02:12:06.641Z,0
2016-04-21T02:13:06.457Z,0
2016-04-21T02:14:06.413Z,0
2016-04-21T02:15:06.634Z,0
2016-04-21T02:16:06.464Z,0
2016-04-21T02:17:06.467Z,0
2016-04-21T02:18:05.922Z,0
2016-04-21T02:19:06.613Z,0
2016-04-21T02:20:06.398Z,0
2016-04-21T02:21:06.650Z,0
2016-04-21T02:22:06.589Z,0
2016-04-21T02:23:06.858Z,0
2016-04-21T02:25:06.380Z,0
2016-04-21T02:26:06.601Z,0
2016-04-21T02:27:06.385Z,0
2016-04-21T02:28:06.841Z,0
2016-04-21T02:29:06.422Z,0
2016-04-21T02:30:06.596Z,0
2016-04-21T02:32:06.570Z,0
2016-04-21T02:33:20.916Z,0
2016-04-21T02:34:06.201Z,0
2016-04-21T02:35:05.859Z,0
2016-04-21T02:36:06.550Z,0
2016-04-21T02:37:06.365Z,0
2016-04-21T02:38:06.337Z,0
2016-04-21T02:39:07.183Z,0
2016-04-21T02:40:20.467Z,0
2016-04-21T02:41:06.563Z,0
2016-04-21T02:42:06.378Z,0
2016-04-21T02:43:06.318Z,0
2016-04-21T02:45:06.323Z,0
2016-04-21T02:46:06.327Z,0
2016-04-21T02:47:06.595Z,0
2016-04-21T02:48:06.317Z,0
2016-04-21T02:49:06.319Z,0
2016-04-21T02:50:06.290Z,0
2016-04-21T02:51:05.840Z,0
2016-04-21T02:52:06.530Z,0
2016-04-21T02:53:06.486Z,0
2016-04-21T02:54:06.317Z,0
2016-04-21T02:55:06.288Z,0
2016-04-21T02:56:06.494Z,0
2016-04-21T02:57:06.277Z,0
2016-04-21T02:58:06.281Z,0
2016-04-21T02:59:20.486Z,0
2016-04-21T03:00:06.302Z,0
2016-04-21T03:01:06.383Z,0
2016-04-21T03:02:06.479Z,0
2016-04-21T03:03:06.294Z,0
2016-04-21T03:04:06.110Z,0
2016-04-21T03:05:06.471Z,0
2016-04-21T03:06:06.287Z,0
2016-04-21T03:07:06.226Z,0
2016-04-21T03:08:06.229Z,0
2016-04-21T03:09:06.233Z,0
2016-04-21T03:10:06.469Z,0
2016-04-21T03:11:06.235Z,0
2016-04-21T03:12:06.318Z,0
2016-04-21T03:13:06.462Z,0
2016-04-21T03:14:06.212Z,0
2016-04-21T03:15:06.215Z,0
2016-04-21T03:16:06.264Z,0
2016-04-21T03:17:06.628Z,0
2016-04-21T03:18:06.191Z,0
2016-04-21T03:19:06.397Z,4
2016-04-21T03:20:06.197Z,4
2016-04-21T03:21:06.199Z,0
2016-04-21T03:22:06.180Z,0
2016-04-21T03:23:06.182Z,4
2016-04-21T03:24:06.263Z,0
2016-04-21T03:25:06.406Z,4
2016-04-21T03:26:06.174Z,4
2016-04-21T03:27:06.162Z,4
2016-04-21T03:28:06.164Z,4
2016-04-21T03:29:06.183Z,8
2016-04-21T03:30:05.404Z,8
2016-04-21T03:31:06.172Z,12
2016-04-21T03:32:05.878Z,8
2016-04-21T03:33:06.350Z,16
2016-04-21T03:34:06.150Z,12
2016-04-21T03:35:06.120Z,16
2016-04-21T03:36:06.155Z,24
2016-04-21T03:37:06.329Z,24
2016-04-21T03:38:06.332Z,28
2016-04-21T03:39:06.350Z,36
2016-04-21T03:40:06.119Z,40
2016-04-21T03:41:06.136Z,44
2016-04-21T03:42:20.642Z,52
2016-04-21T03:43:06.111Z,60
2016-04-21T03:44:06.333Z,68
2016-04-21T03:46:06.291Z,88
2016-04-21T03:47:06.309Z,104
2016-04-21T03:48:06.297Z,116
2016-04-21T03:49:06.111Z,132
2016-04-21T03:50:06.083Z,148
2016-04-21T03:51:06.226Z,160
2016-04-21T03:52:06.073Z,180
2016-04-21T03:53:06.559Z,200
2016-04-21T03:54:06.063Z,224
2016-04-21T03:55:06.096Z,244
2016-04-21T03:56:06.459Z,268
2016-04-21T03:57:06.118Z,296
2016-04-21T03:58:06.073Z,320
2016-04-21T03:59:06.279Z,352
2016-04-21T04:00:06.437Z,380
2016-04-21T04:01:06.050Z,412
2016-04-21T04:02:06.053Z,448
2016-04-21T04:03:06.056Z,484
2016-04-21T04:04:06.261Z,516
2016-04-21T04:05:06.248Z,556
2016-04-21T04:06:06.657Z,592
2016-04-21T04:07:06.222Z,632
2016-04-21T04:08:05.537Z,676
2016-04-21T04:09:20.106Z,728
2016-04-21T04:10:06.012Z,760
2016-04-21T04:11:06.045Z,808
2016-04-21T04:12:06.439Z,856
2016-04-21T04:13:06.191Z,904
2016-04-21T04:14:05.991Z,948
2016-04-21T04:15:06.446Z,1000
2016-04-21T04:16:05.980Z,1048
2016-04-21T04:17:05.999Z,1100
2016-04-21T04:18:06.002Z,1152
2016-04-21T04:19:05.989Z,1204
2016-04-21T04:20:05.976Z,1256
2016-04-21T04:21:20.060Z,1316
2016-04-21T04:22:05.950Z,1360
2016-04-21T04:23:05.969Z,1412
2016-04-21T04:24:05.971Z,1464
2016-04-21T04:25:05.896Z,1516
2016-04-21T04:26:05.960Z,1568
2016-04-21T04:28:05.466Z,1668
2016-04-21T04:29:06.172Z,1720
2016-04-21T04:30:05.926Z,1772
2016-04-21T04:31:05.662Z,1824
2016-04-21T04:32:05.946Z,1868
2016-04-21T04:33:05.948Z,1920
2016-04-21T04:34:06.123Z,1968
2016-04-21T04:35:05.906Z,2016
2016-04-21T04:37:05.897Z,2108
2016-04-21T04:38:05.181Z,2156
2016-04-21T04:39:05.903Z,2204
2016-04-21T04:40:05.905Z,2248
2016-04-21T04:41:05.892Z,2296
2016-04-21T04:42:05.878Z,2340
2016-04-21T04:43:06.100Z,2380
2016-04-21T04:44:05.900Z,2428
2016-04-21T04:45:05.887Z,2464
2016-04-21T04:46:05.936Z,2500
2016-04-21T04:47:05.877Z,2540
2016-04-21T04:48:05.863Z,2580
2016-04-21T04:49:05.430Z,2620
2016-04-21T04:50:05.885Z,2660
2016-04-21T04:51:05.732Z,2696
2016-04-21T04:52:05.859Z,2736
2016-04-21T04:53:05.862Z,2772
2016-04-21T04:54:05.849Z,2808
2016-04-21T04:55:05.883Z,2844
2016-04-21T04:56:05.871Z,2880
2016-04-21T04:57:06.076Z,2908
2016-04-21T04:58:06.079Z,2948
2016-04-21T04:59:06.081Z,2980
2016-04-21T05:00:05.834Z,3008
2016-04-21T05:01:05.867Z,3040
2016-04-21T05:02:06.449Z,3080
2016-04-21T05:03:06.076Z,3108
2016-04-21T05:04:05.860Z,3136
2016-04-21T05:05:06.034Z,3160
2016-04-21T05:06:05.834Z,3188
2016-04-21T05:07:05.805Z,3216
2016-04-21T05:08:05.558Z,3244
2016-04-21T05:09:05.531Z,3268
2016-04-21T05:10:05.814Z,3300
2016-04-21T05:11:05.801Z,3336
2016-04-21T05:12:05.803Z,3404
2016-04-21T05:13:05.791Z,3428
2016-04-21T05:14:05.808Z,3424
2016-04-21T05:15:05.858Z,3468
2016-04-21T05:16:05.799Z,3516
2016-04-21T05:17:05.786Z,3544
2016-04-21T05:18:05.975Z,3712
2016-04-21T05:19:05.853Z,3592
2016-04-21T05:20:05.794Z,3628
2016-04-21T05:21:05.766Z,3812
2016-04-21T05:22:05.768Z,3896
2016-04-21T05:23:06.333Z,3732
2016-04-21T05:24:06.195Z,3620
2016-04-21T05:25:19.857Z,3640
2016-04-21T05:26:05.997Z,3652
2016-04-21T05:27:06.015Z,3672
2016-04-21T05:28:06.299Z,3688
2016-04-21T05:29:05.755Z,3712
2016-04-21T05:30:05.758Z,3728
2016-04-21T05:31:05.746Z,3772
2016-04-21T05:32:06.107Z,3792
2016-04-21T05:33:05.877Z,3788
2016-04-21T05:34:20.075Z,3844
2016-04-21T05:35:07.590Z,3944
2016-04-21T05:36:07.107Z,4120
2016-04-21T05:37:08.273Z,4368
2016-04-21T05:38:05.759Z,4392
2016-04-21T05:39:05.653Z,4140
2016-04-21T05:40:06.359Z,4108
2016-04-21T05:41:05.268Z,4568
2016-04-21T05:42:05.754Z,4296
2016-04-21T05:43:05.944Z,3936
2016-04-21T05:44:05.901Z,3928
2016-04-21T05:45:05.778Z,3936
2016-04-21T05:46:06.342Z,3952
2016-04-21T05:47:06.143Z,3964
2016-04-21T05:48:20.242Z,3980
2016-04-21T05:49:05.242Z,3984
2016-04-21T05:50:19.997Z,3992
2016-04-21T05:51:06.841Z,4004
2016-04-21T05:52:06.422Z,4008
2016-04-21T05:53:05.861Z,4012
2016-04-21T05:54:05.912Z,4028
2016-04-21T05:55:05.774Z,4044
2016-04-21T05:56:05.698Z,4056
2016-04-21T05:57:20.172Z,4068
2016-04-21T05:58:05.891Z,4076
2016-04-21T05:59:05.909Z,4088
2016-04-21T06:00:05.256Z,4100
2016-04-21T06:01:07.040Z,4112
2016-04-21T06:02:07.277Z,4132
2016-04-21T06:03:05.889Z,4156
2016-04-21T06:04:06.282Z,4188
2016-04-21T06:05:06.332Z,4172
2016-04-21T06:06:06.054Z,4172
2016-04-21T06:07:06.259Z,4184
2016-04-21T06:08:06.199Z,4188
2016-04-21T06:09:05.764Z,4192
2016-04-21T06:10:06.032Z,4204
2016-04-21T06:11:20.288Z,4212
2016-04-21T06:12:20.150Z,4216
2016-04-21T06:13:06.697Z,4228
2016-04-21T06:14:05.887Z,4232
2016-04-21T06:15:20.081Z,4240
2016-04-21T06:16:05.924Z,4244
2016-04-21T06:17:06.598Z,4248
2016-04-21T06:18:05.836Z,4256
2016-04-21T06:19:05.198Z,4260
2016-04-21T06:20:06.106Z,4276
2016-04-21T06:21:05.687Z,4284
2016-04-21T06:22:06.939Z,4296
2016-04-21T06:23:19.680Z,4304
2016-04-21T06:24:06.274Z,4312
2016-04-21T06:25:06.354Z,4316
2016-04-21T06:26:05.935Z,4320
2016-04-21T06:27:05.828Z,4328
2016-04-21T06:28:06.160Z,4332
2016-04-21T06:29:06.193Z,4336
2016-04-21T06:30:05.930Z,4332
2016-04-21T06:31:06.355Z,4332
2016-04-21T06:32:05.983Z,4328
2016-04-21T06:33:06.236Z,4328
2016-04-21T06:34:05.957Z,4324
2016-04-21T06:35:06.194Z,4324
2016-04-21T06:36:06.540Z,4320
2016-04-21T06:38:06.124Z,4332
2016-04-21T06:39:06.174Z,4340
2016-04-21T06:41:05.726Z,4348
2016-04-21T06:42:05.854Z,4348
2016-04-21T06:43:06.778Z,4352
2016-04-21T06:44:06.983Z,4356
2016-04-21T06:45:05.971Z,4396
2016-04-21T06:46:06.176Z,4408
2016-04-21T06:47:05.757Z,4384
2016-04-21T06:49:05.888Z,4428
2016-04-21T06:50:05.781Z,4416
2016-04-21T06:51:06.565Z,4396
2016-04-21T06:52:05.771Z,4392
2016-04-21T06:53:05.742Z,4388
2016-04-21T06:54:05.823Z,4388
2016-04-21T06:55:06.014Z,4388
2016-04-21T06:56:05.953Z,4388
2016-04-21T06:57:06.128Z,4388
2016-04-21T06:58:05.897Z,4396
2016-04-21T06:59:06.133Z,4396
2016-04-21T07:00:19.967Z,4404
2016-04-21T07:01:20.157Z,4424
2016-04-21T07:02:05.876Z,4444
2016-04-21T07:03:06.175Z,4492
2016-04-21T07:04:05.647Z,4476
2016-04-21T07:05:05.837Z,4420
2016-04-21T07:06:06.090Z,4400
2016-04-21T07:07:05.624Z,4408
2016-04-21T07:08:05.829Z,4420
2016-04-21T07:09:05.832Z,4584
2016-04-21T07:10:05.851Z,5020
2016-04-21T07:11:33.824Z,5164
2016-04-21T07:12:05.637Z,4988
2016-04-21T07:13:05.140Z,4784
2016-04-21T07:14:05.893Z,5228
2016-04-21T07:15:05.848Z,5708
2016-04-21T07:17:05.666Z,4456
2016-04-21T07:18:05.622Z,4440
2016-04-21T07:19:05.890Z,4448
2016-04-21T07:20:05.642Z,4456
2016-04-21T07:21:05.365Z,4620
2016-04-21T07:22:06.039Z,6692
2016-04-21T07:23:05.682Z,8628
2016-04-21T07:24:05.639Z,8168
2016-04-21T07:25:06.048Z,7676
2016-04-21T07:26:05.675Z,7544
2016-04-21T07:27:06.053Z,8036
2016-04-21T07:28:05.650Z,7212
2016-04-21T07:29:04.917Z,5632
2016-04-21T07:30:06.358Z,4856
2016-04-21T07:31:05.704Z,4712
2016-04-21T07:32:05.910Z,4536
2016-04-21T07:33:05.663Z,4540
2016-04-21T07:34:05.946Z,4532
2016-04-21T07:35:05.652Z,4512
2016-04-21T07:36:19.748Z,4488
2016-04-21T07:37:05.688Z,4480
2016-04-21T07:38:08.911Z,4468
2016-04-21T07:39:05.444Z,4468
2016-04-21T07:40:19.759Z,4472
2016-04-21T07:41:05.857Z,4476
2016-04-21T07:42:05.671Z,4484
2016-04-21T07:44:05.911Z,4496
2016-04-21T07:45:05.882Z,4500
2016-04-21T07:46:05.870Z,4500
2016-04-21T07:47:05.684Z,4496
2016-04-21T07:48:05.687Z,4504
2016-04-21T07:49:05.706Z,4512
2016-04-21T07:50:05.895Z,4512
2016-04-21T07:51:19.804Z,4520
2016-04-21T07:52:19.979Z,4528
2016-04-21T07:53:05.935Z,4536
2016-04-21T07:54:04.875Z,4544
2016-04-21T07:55:05.925Z,4548
2016-04-21T07:56:05.990Z,4560
2016-04-21T07:57:05.914Z,4568
2016-04-21T07:59:04.967Z,4592
2016-04-21T08:00:19.797Z,4624
2016-04-21T08:01:05.722Z,4640
2016-04-21T08:02:05.912Z,4652
2016-04-21T08:03:05.947Z,4652
2016-04-21T08:04:05.933Z,4628
2016-04-21T08:05:05.935Z,4644
2016-04-21T08:06:05.752Z,4652
2016-04-21T08:07:05.972Z,4660
2016-04-21T08:08:05.757Z,4668
2016-04-21T08:09:05.775Z,4672
2016-04-21T08:10:05.746Z,4692
2016-04-21T08:11:05.733Z,4684
2016-04-21T08:12:05.735Z,4680
2016-04-21T08:13:06.004Z,4688
2016-04-21T08:14:19.882Z,4724
2016-04-21T08:15:20.073Z,4752
2016-04-21T08:16:05.638Z,4724
2016-04-21T08:17:06.171Z,4740
2016-04-21T08:18:05.799Z,4836
2016-04-21T08:19:05.770Z,5176
2016-04-21T08:21:05.807Z,5176
2016-04-21T08:22:05.279Z,4716
2016-04-21T08:23:05.469Z,4704
2016-04-21T08:24:05.783Z,4724
2016-04-21T08:25:19.881Z,4856
2016-04-21T08:26:05.992Z,5152
2016-04-21T08:27:05.808Z,6012
2016-04-21T08:28:05.810Z,7432
2016-04-21T08:29:05.829Z,7992
2016-04-21T08:30:06.191Z,6436
2016-04-21T08:31:05.802Z,9764
2016-04-21T08:32:05.806Z,7628
2016-04-21T08:33:05.839Z,4828
2016-04-21T08:34:05.827Z,4728
2016-04-21T08:35:05.830Z,4720
2016-04-21T08:36:20.332Z,4760
2016-04-21T08:37:05.819Z,4720
2016-04-21T08:38:06.680Z,4712
2016-04-21T08:39:06.230Z,4712
2016-04-21T08:40:05.827Z,4724
2016-04-21T08:41:05.892Z,4748
2016-04-21T08:42:05.817Z,4772
2016-04-21T08:43:06.226Z,4760
2016-04-21T08:46:05.827Z,4812
2016-04-21T08:47:05.845Z,4820
2016-04-21T08:48:05.380Z,4824
2016-04-21T08:49:05.852Z,4808
2016-04-21T08:50:05.854Z,4820
2016-04-21T08:51:05.872Z,4824
2016-04-21T08:52:19.989Z,4796
2016-04-21T08:53:20.383Z,4796
2016-04-21T08:54:05.886Z,4796
2016-04-21T08:55:05.903Z,4820
2016-04-21T08:56:06.078Z,4804
2016-04-21T08:57:05.955Z,4816
2016-04-21T08:58:06.083Z,4808
2016-04-21T08:59:06.117Z,4804
2016-04-21T09:00:05.901Z,4788
2016-04-21T09:01:06.388Z,4780
2016-04-21T09:02:05.923Z,4800
2016-04-21T09:03:05.456Z,4796
2016-04-21T09:04:05.943Z,4760
2016-04-21T09:05:05.930Z,4768
2016-04-21T09:06:06.183Z,4728
2016-04-21T09:07:20.046Z,4704
2016-04-21T09:08:20.266Z,4728
2016-04-21T09:10:06.007Z,4744
2016-04-21T09:11:05.946Z,4784
2016-04-21T09:12:06.137Z,4824
2016-04-21T09:14:05.971Z,4812
2016-04-21T09:15:05.724Z,4820
2016-04-21T09:16:05.945Z,4796
2016-04-21T09:17:05.962Z,4792
2016-04-21T09:18:06.215Z,4792
2016-04-21T09:19:05.998Z,4800
2016-04-21T09:20:05.987Z,4804
2016-04-21T09:21:05.989Z,4788
2016-04-21T09:22:05.992Z,4808
2016-04-21T09:24:05.997Z,4808
2016-04-21T09:25:06.156Z,4812
2016-04-21T09:26:06.425Z,4812
2016-04-21T09:27:06.006Z,4832
2016-04-21T09:28:06.462Z,4832
2016-04-21T09:29:20.511Z,4824
2016-04-21T09:30:06.233Z,4816
2016-04-21T09:31:06.219Z,4836
2016-04-21T09:32:06.441Z,4856
2016-04-21T09:33:06.068Z,4844
2016-04-21T09:34:06.274Z,4872
2016-04-21T09:35:06.652Z,4888
2016-04-21T09:37:05.594Z,4920
2016-04-21T09:38:06.066Z,4904
2016-04-21T09:39:06.084Z,4884
2016-04-21T09:40:06.275Z,4892
2016-04-21T09:41:06.121Z,4880
2016-04-21T09:42:06.311Z,4892
2016-04-21T09:43:20.626Z,4916
2016-04-21T09:44:06.645Z,4928
2016-04-21T09:45:06.101Z,4988
2016-04-21T09:46:06.134Z,4968
2016-04-21T09:47:06.153Z,5020
2016-04-21T09:48:06.140Z,5056
2016-04-21T09:49:06.439Z,5144
2016-04-21T09:50:06.333Z,5060
2016-04-21T09:51:06.398Z,5044
2016-04-21T09:52:06.166Z,5032
2016-04-21T09:53:06.138Z,5036
2016-04-21T09:54:20.500Z,5024
2016-04-21T09:55:06.378Z,5032
2016-04-21T09:56:06.193Z,5032
2016-04-21T09:57:06.180Z,5048
2016-04-21T09:58:06.573Z,5092
2016-04-21T09:59:06.185Z,5100
2016-04-21T10:00:20.517Z,5124
2016-04-21T10:01:06.237Z,5132
2016-04-21T10:02:20.334Z,5196
2016-04-21T10:03:06.478Z,5208
2016-04-21T10:04:20.308Z,5340
2016-04-21T10:05:06.201Z,5412
2016-04-21T10:06:06.250Z,5372
2016-04-21T10:07:06.253Z,5276
2016-04-21T10:09:20.977Z,5624
2016-04-21T10:10:06.793Z,5672
2016-04-21T10:11:19.843Z,5680
2016-04-21T10:12:06.312Z,5720
2016-04-21T10:13:27.749Z,5620
2016-04-21T10:14:06.640Z,5716
2016-04-21T10:15:06.515Z,5756
2016-04-21T10:16:06.525Z,6148
2016-04-21T10:17:06.560Z,6192
2016-04-21T10:18:06.765Z,6176
2016-04-21T10:19:06.659Z,6160
2016-04-21T10:21:06.657Z,6036
2016-04-21T10:22:06.665Z,5904
2016-04-21T10:24:06.652Z,5404
2016-04-21T10:25:07.410Z,5292
2016-04-21T10:26:07.056Z,5284
2016-04-21T10:27:07.107Z,5272
2016-04-21T10:28:06.847Z,5304
2016-04-21T10:29:06.445Z,5316
2016-04-21T10:30:06.247Z,5356
2016-04-21T10:31:07.329Z,5376
2016-04-21T10:32:07.223Z,5400
2016-04-21T10:33:07.460Z,5404
2016-04-21T10:34:07.026Z,5416
2016-04-21T10:35:06.639Z,5440
2016-04-21T10:36:07.064Z,5464
2016-04-21T10:37:07.473Z,5484
2016-04-21T10:40:07.404Z,5512
2016-04-21T10:41:07.282Z,5500
2016-04-21T10:42:07.238Z,5488
2016-04-21T10:43:07.194Z,5472
2016-04-21T10:44:06.993Z,5468
2016-04-21T10:45:06.934Z,5492
2016-04-21T10:46:07.062Z,5524
2016-04-21T10:47:07.361Z,5572
2016-04-21T10:48:07.021Z,5600
2016-04-21T10:49:07.304Z,5592
2016-04-21T10:50:06.448Z,5608
2016-04-21T10:51:07.388Z,5620
2016-04-21T10:52:07.343Z,5608
2016-04-21T10:53:07.581Z,5552
2016-04-21T10:54:07.490Z,5524
2016-04-21T10:55:07.476Z,5540
2016-04-21T10:56:07.448Z,5548
2016-04-21T10:57:06.372Z,5544
2016-04-21T10:58:07.281Z,5528
2016-04-21T10:59:07.237Z,5520
2016-04-21T11:02:07.699Z,5520
2016-04-21T11:03:21.358Z,5532
2016-04-21T11:04:07.469Z,5536
2016-04-21T11:05:07.316Z,5544
2016-04-21T11:06:21.335Z,5540
2016-04-21T11:07:07.306Z,5544
2016-04-21T11:08:07.574Z,5528
2016-04-21T11:09:07.530Z,5536
2016-04-21T11:10:07.657Z,5548
2016-04-21T11:11:07.488Z,5572
2016-04-21T11:12:07.351Z,5568
2016-04-21T11:13:07.510Z,5564
2016-04-21T11:14:07.465Z,5572
2016-04-21T11:15:07.468Z,5580
2016-04-21T11:16:07.596Z,5600
2016-04-21T11:17:07.505Z,5616
2016-04-21T11:18:07.741Z,5624
2016-04-21T11:19:07.572Z,5632
2016-04-21T11:20:07.778Z,5656
2016-04-21T11:21:07.531Z,5696
2016-04-21T11:22:07.408Z,5692
2016-04-21T11:23:07.459Z,5712
2016-04-21T11:24:07.476Z,5736
2016-04-21T11:25:07.776Z,5752
2016-04-21T11:26:07.622Z,5780
2016-04-21T11:27:07.656Z,5792
2016-04-21T11:28:07.534Z,5816
2016-04-21T11:29:07.162Z,5824
2016-04-21T11:30:07.149Z,5840
2016-04-21T11:31:07.980Z,5868
2016-04-21T11:32:21.700Z,5892
2016-04-21T11:33:07.844Z,5892
2016-04-21T11:34:07.238Z,5908
2016-04-21T11:35:07.663Z,5932
2016-04-21T11:36:07.555Z,5960
2016-04-21T11:37:07.668Z,5988
2016-04-21T11:38:07.982Z,6016
2016-04-21T11:39:07.813Z,6048
2016-04-21T11:40:07.879Z,6080
2016-04-21T11:41:07.616Z,6104
2016-04-21T11:42:07.869Z,6116
2016-04-21T11:43:07.262Z,6112
2016-04-21T11:44:07.296Z,6096
2016-04-21T11:45:07.486Z,6084
2016-04-21T11:46:07.583Z,6076
2016-04-21T11:47:07.507Z,6072
2016-04-21T11:48:07.322Z,6084
2016-04-21T11:49:35.512Z,6056
2016-04-21T11:50:07.343Z,6052
2016-04-21T11:51:07.612Z,6048
2016-04-21T11:52:21.662Z,6044
2016-04-21T11:53:07.789Z,6032
2016-04-21T11:54:08.103Z,6016
2016-04-21T11:55:07.403Z,6004
2016-04-21T11:56:07.406Z,5996
2016-04-21T11:57:07.378Z,6000
2016-04-21T11:58:07.459Z,6000
2016-04-21T11:59:07.367Z,5988
2016-04-21T12:00:07.464Z,5968
2016-04-21T12:01:07.482Z,5960
2016-04-21T12:02:07.531Z,5948
2016-04-21T12:03:07.691Z,5952
2016-04-21T12:04:07.694Z,5972
2016-04-21T12:05:21.837Z,5980
2016-04-21T12:06:07.714Z,5984
2016-04-21T12:07:07.467Z,5968
2016-04-21T12:08:07.110Z,5968
2016-04-21T12:09:07.441Z,5956
2016-04-21T12:10:07.538Z,5952
2016-04-21T12:11:07.774Z,5948
2016-04-21T12:12:07.543Z,5948
2016-04-21T12:13:07.077Z,5948
2016-04-21T12:14:22.095Z,5940
2016-04-21T12:16:07.601Z,5940
2016-04-21T12:17:07.822Z,5940
2016-04-21T12:18:07.606Z,5936
2016-04-21T12:19:07.609Z,5924
2016-04-21T12:20:07.626Z,5912
2016-04-21T12:21:07.645Z,5916
2016-04-21T12:22:07.617Z,5908
2016-04-21T12:23:07.666Z,5892
2016-04-21T12:24:07.670Z,5884
2016-04-21T12:25:07.703Z,5876
2016-04-21T12:26:07.206Z,5876
2016-04-21T12:27:07.708Z,5892
2016-04-21T12:28:07.931Z,5916
2016-04-21T12:29:07.698Z,5940
2016-04-21T12:31:08.359Z,5988
2016-04-21T12:32:07.753Z,6012
2016-04-21T12:33:07.944Z,6032
2016-04-21T12:34:09.399Z,6032
2016-04-21T12:35:08.433Z,6036
2016-04-21T12:36:08.169Z,6028
2016-04-21T12:37:07.891Z,6040
2016-04-21T12:38:08.207Z,6040
2016-04-21T12:39:07.819Z,6052
2016-04-21T12:40:08.087Z,6060
2016-04-21T12:41:21.480Z,6068
2016-04-21T12:42:08.093Z,6060
2016-04-21T12:43:22.377Z,6060
2016-04-21T12:44:07.910Z,6068
2016-04-21T12:45:07.913Z,6076
2016-04-21T12:46:07.899Z,6088
2016-04-21T12:47:07.887Z,6092
2016-04-21T12:48:07.905Z,6096
2016-04-21T12:49:07.954Z,6120
2016-04-21T12:50:07.927Z,6136
2016-04-21T12:51:08.163Z,6156
2016-04-21T12:52:07.948Z,6160
2016-04-21T12:53:07.982Z,6160
2016-04-21T12:54:07.968Z,6164
2016-04-21T12:55:07.846Z,6156
2016-04-21T12:56:08.005Z,6152
2016-04-21T12:57:08.226Z,6168
2016-04-21T12:58:08.229Z,6176
2016-04-21T12:59:08.076Z,6164
2016-04-21T13:00:07.579Z,6160
2016-04-21T13:01:08.284Z,6156
2016-04-21T13:02:08.100Z,6156
2016-04-21T13:03:08.321Z,6172
2016-04-21T13:04:08.120Z,6184
2016-04-21T13:06:08.125Z,6208
2016-04-21T13:07:08.128Z,6216
2016-04-21T13:08:22.288Z,6240
2016-04-21T13:09:08.352Z,6252
2016-04-21T13:10:08.027Z,6264
2016-04-21T13:11:08.217Z,6268
2016-04-21T13:12:07.877Z,6256
2016-04-21T13:13:22.504Z,6252
2016-04-21T13:14:08.287Z,6256
2016-04-21T13:15:08.260Z,6252
2016-04-21T13:16:08.309Z,6236
2016-04-21T13:17:22.749Z,6220
2016-04-21T13:18:07.815Z,6224
2016-04-21T13:19:08.254Z,6212
2016-04-21T13:20:08.320Z,6212
2016-04-21T13:21:08.276Z,6220
2016-04-21T13:22:08.341Z,6224
2016-04-21T13:23:22.610Z,6240
2016-04-21T13:24:08.331Z,6252
2016-04-21T13:25:08.708Z,6268
2016-04-21T13:26:08.367Z,6280
2016-04-21T13:27:22.713Z,6284
2016-04-21T13:28:08.092Z,6292
2016-04-21T13:29:22.672Z,6288
2016-04-21T13:30:08.456Z,6288
2016-04-21T13:31:08.428Z,6284
2016-04-21T13:32:08.618Z,6284
2016-04-21T13:33:22.511Z,6276
2016-04-21T13:34:08.420Z,6276
2016-04-21T13:35:08.657Z,6288
2016-04-21T13:36:08.456Z,6300
2016-04-21T13:37:08.491Z,6320
2016-04-21T13:38:08.711Z,6332
2016-04-21T13:39:08.527Z,6336
2016-04-21T13:40:08.624Z,6352
2016-04-21T13:41:08.564Z,6388
2016-04-21T13:42:08.801Z,6408
2016-04-21T13:43:08.553Z,6416
2016-04-21T13:44:08.555Z,6424
2016-04-21T13:45:08.592Z,6448
2016-04-21T13:47:08.613Z,6476
2016-04-21T13:48:09.038Z,6480
2016-04-21T13:49:08.651Z,6492
2016-04-21T13:50:08.871Z,6492
2016-04-21T13:51:08.905Z,6440
2016-04-21T13:52:08.173Z,6516
2016-04-21T13:53:08.676Z,6520
2016-04-21T13:54:08.928Z,6516
2016-04-21T13:55:08.900Z,6528
2016-04-21T13:56:08.747Z,6536
2016-04-21T13:57:08.718Z,6544
2016-04-21T13:58:08.720Z,6536
2016-04-21T13:59:08.864Z,6552
2016-04-21T14:00:08.804Z,6564
2016-04-21T14:01:22.870Z,6544
2016-04-21T14:02:08.981Z,6532
2016-04-21T14:03:08.813Z,6536
2016-04-21T14:04:09.010Z,6528
2016-04-21T14:05:08.981Z,6512
2016-04-21T14:06:09.248Z,6480
2016-04-21T14:07:08.876Z,6524
2016-04-21T14:08:08.895Z,6516
2016-04-21T14:09:08.867Z,6512
2016-04-21T14:10:08.885Z,6520
2016-04-21T14:11:08.934Z,6512
2016-04-21T14:12:08.906Z,6488
2016-04-21T14:13:09.158Z,6484